^^
Datos históricos de la estación: Murcia-Puente Tocinos
Diario Informe para Noviembre 16, 2021 Unidades:  Métrico    Ingés   Ambas
Diario Semanal Mensual Anual
  Máxima: Mínima: Promedio:
Temperatura: 19.7 °C 8.8 °C 13.3 °C
Punto de rocio: 9.6 °C 2.5 °C 4.6 °C
Humedad: 79% 32.9% 58%
Velocidad viento: 10km/h 0km/h 5.3km/h
Racha viento: 17.2km/h - -
Viento- - SSE
Presión: 1017.9 hPa 1014.7 hPa -
Precipitación: 0.0 mm    
 
 
Tabla de datos para Noviembre 16, 2021
Hora Temperatura Punto de rocio Presión Viento Velocidad viento Racha viento Humedad Intensidad lluvia(por hora) Nubes
00:04 11.3 °C 3.3 °C 1017.3 hPa Sur 5.8 km/h 13 km/h 58% 0.0 mm
00:09 11.2 °C 3.2 °C 1017.3 hPa Sur 6.5 km/h 11.1 km/h 58% 0.0 mm
00:14 11.2 °C 3.2 °C 1017.2 hPa SO 8.4 km/h 13 km/h 58% 0.0 mm
00:19 11.2 °C 3.2 °C 1017.2 hPa SO 8.1 km/h 13 km/h 58% 0.0 mm
00:24 11.2 °C 3.1 °C 1017.2 hPa SO 7.6 km/h 11.1 km/h 57.4% 0.0 mm
00:29 11.3 °C 3.1 °C 1017.2 hPa SO 7.2 km/h 11.1 km/h 57% 0.0 mm
00:34 11.4 °C 3 °C 1017.2 hPa SSO 6.4 km/h 11.1 km/h 56.2% 0.0 mm
00:39 11.4 °C 3 °C 1017.2 hPa SSE 6.6 km/h 11.1 km/h 56.4% 0.0 mm
00:44 11.4 °C 3.2 °C 1017.2 hPa SSO 6.9 km/h 10 km/h 57% 0.0 mm
00:49 11.4 °C 3.2 °C 1017.2 hPa SO 6.8 km/h 11.9 km/h 57% 0.0 mm
00:54 11.4 °C 3.2 °C 1017.2 hPa SSO 6.4 km/h 11.1 km/h 57% 0.0 mm
00:59 11.4 °C 3.2 °C 1017.2 hPa SSO 6.4 km/h 9.3 km/h 57% 0.0 mm
01:04 11.4 °C 3.2 °C 1017.2 hPa SO 6.4 km/h 7.6 km/h 57% 0.0 mm
01:09 11.4 °C 3.2 °C 1017.2 hPa SO 6 km/h 7.4 km/h 57% 0.0 mm
01:14 11.3 °C 3.3 °C 1017.0 hPa SSE 4.7 km/h 7.6 km/h 57.5% 0.0 mm
01:19 11.2 °C 3.4 °C 1017.0 hPa SE 4.7 km/h 7.4 km/h 58.7% 0.0 mm
01:24 11 °C 3.5 °C 1017.0 hPa SE 4.7 km/h 7.4 km/h 59.9% 0.0 mm
01:29 10.8 °C 3.5 °C 1016.9 hPa SSE 4.7 km/h 7.6 km/h 60.6% 0.0 mm
01:34 10.6 °C 3.5 °C 1016.9 hPa Sur 4.7 km/h 9.5 km/h 61.4% 0.0 mm
01:39 10.5 °C 3.5 °C 1016.9 hPa SO 5.1 km/h 9.3 km/h 62% 0.0 mm
01:44 10.5 °C 3.5 °C 1016.8 hPa OSO 6.4 km/h 7.4 km/h 62% 0.0 mm
01:49 10.6 °C 3.5 °C 1016.8 hPa OSO 5.7 km/h 7.4 km/h 61.5% 0.0 mm
01:54 10.6 °C 3.4 °C 1016.8 hPa SO 3.9 km/h 9.3 km/h 60.8% 0.0 mm
01:59 10.7 °C 3.2 °C 1016.8 hPa SO 4.1 km/h 7.4 km/h 60% 0.0 mm
02:04 10.8 °C 3.1 °C 1016.8 hPa SO 4.7 km/h 7.4 km/h 59.1% 0.0 mm
02:09 10.8 °C 3.4 °C 1016.8 hPa SSO 4.2 km/h 6.4 km/h 60.2% 0.0 mm
02:14 10.7 °C 3.5 °C 1016.7 hPa SE 3.2 km/h 7.6 km/h 61% 0.0 mm
02:19 10.3 °C 3.4 °C 1016.7 hPa SE 3.8 km/h 7.4 km/h 62.4% 0.0 mm
02:24 9.9 °C 3.4 °C 1016.8 hPa ESE 5 km/h 8.4 km/h 63.9% 0.0 mm
02:29 9.6 °C 3.2 °C 1016.8 hPa SSE 5 km/h 7.6 km/h 64.5% 0.0 mm
02:34 9.3 °C 3.3 °C 1016.8 hPa Sur 5 km/h 8.4 km/h 66% 0.0 mm
02:39 9.3 °C 3.3 °C 1016.9 hPa SSO 5.2 km/h 8.4 km/h 66% 0.0 mm
02:44 9.6 °C 3.3 °C 1016.9 hPa SSE 5.8 km/h 7.6 km/h 65% 0.0 mm
02:49 9.8 °C 3.4 °C 1016.9 hPa Sur 5.8 km/h 8.7 km/h 64.5% 0.0 mm
02:54 9.8 °C 3.1 °C 1016.9 hPa OSO 5.8 km/h 13.7 km/h 63% 0.0 mm
02:59 10.2 °C 2.8 °C 1016.8 hPa OSO 6.2 km/h 10 km/h 60.3% 0.0 mm
03:04 10.3 °C 2.7 °C 1016.8 hPa SO 6.9 km/h 8.7 km/h 59.1% 0.0 mm
03:09 10.7 °C 2.8 °C 1016.8 hPa OSO 6.6 km/h 10 km/h 58.3% 0.0 mm
03:14 10.8 °C 2.8 °C 1016.7 hPa SSO 5.8 km/h 7.4 km/h 58.1% 0.0 mm
03:19 10.7 °C 3 °C 1016.7 hPa Sur 5.4 km/h 7.4 km/h 59.4% 0.0 mm
03:24 10.3 °C 3.2 °C 1016.8 hPa SE 4.7 km/h 7.4 km/h 61.1% 0.0 mm
03:29 10.1 °C 3.3 °C 1016.8 hPa SE 4.7 km/h 8.4 km/h 62.7% 0.0 mm
03:34 9.7 °C 3.2 °C 1016.8 hPa ESE 4.7 km/h 7.6 km/h 63.8% 0.0 mm
03:39 9.3 °C 3.1 °C 1016.8 hPa SE 4.8 km/h 9.3 km/h 65.1% 0.0 mm
03:44 9 °C 3.1 °C 1016.7 hPa SSE 5 km/h 9.3 km/h 66.4% 0.0 mm
03:49 8.9 °C 3.1 °C 1016.7 hPa SSE 5.4 km/h 8.4 km/h 67.1% 0.0 mm
03:54 8.8 °C 3.3 °C 1016.7 hPa Sur 6.4 km/h 7.4 km/h 68% 0.0 mm
03:59 8.9 °C 3.3 °C 1016.6 hPa SSO 5.9 km/h 7.4 km/h 68% 0.0 mm
04:04 8.9 °C 3.3 °C 1016.6 hPa Sur 5 km/h 5.8 km/h 67.7% 0.0 mm
04:09 9.1 °C 3.3 °C 1016.6 hPa SE 4.5 km/h 5.6 km/h 67.1% 0.0 mm
04:14 9.2 °C 3.4 °C 1016.5 hPa Sur 3.2 km/h 7.4 km/h 67% 0.0 mm
04:19 9.2 °C 3.3 °C 1016.5 hPa Sur 3.4 km/h 8.4 km/h 66.7% 0.0 mm
04:24 9.2 °C 3.2 °C 1016.5 hPa SSE 3.9 km/h 9.5 km/h 66% 0.0 mm
04:29 9.2 °C 3.4 °C 1016.5 hPa SSE 4.6 km/h 9.3 km/h 66.9% 0.0 mm
04:34 9.2 °C 3.2 °C 1016.5 hPa Sur 6.4 km/h 8.4 km/h 66.4% 0.0 mm
04:39 9.2 °C 3.2 °C 1016.5 hPa SSO 6.4 km/h 11.1 km/h 66% 0.0 mm
04:44 9.2 °C 3 °C 1016.4 hPa Sur 6.4 km/h 11.1 km/h 65.1% 0.0 mm
04:49 9.3 °C 3 °C 1016.4 hPa SO 6 km/h 9.3 km/h 64.9% 0.0 mm
04:54 9.4 °C 2.9 °C 1016.4 hPa SSO 5 km/h 5.8 km/h 64% 0.0 mm
04:59 9.4 °C 2.9 °C 1016.4 hPa SSO 4.6 km/h 7.4 km/h 63.7% 0.0 mm
05:04 9.5 °C 2.8 °C 1016.4 hPa ONO 3.9 km/h 9.5 km/h 63% 0.0 mm
05:09 9.4 °C 2.8 °C 1016.4 hPa ONO 4.1 km/h 7.4 km/h 63.6% 0.0 mm
05:14 9.2 °C 2.8 °C 1016.4 hPa ONO 4.7 km/h 7.4 km/h 64% 0.0 mm
05:19 9.1 °C 2.9 °C 1016.4 hPa OSO 4.4 km/h 7.4 km/h 65% 0.0 mm
05:24 9 °C 2.8 °C 1016.5 hPa OSO 3.9 km/h 7.4 km/h 65% 0.0 mm
05:29 8.9 °C 2.7 °C 1016.5 hPa OSO 3.6 km/h 5.8 km/h 65% 0.0 mm
05:34 8.9 °C 2.8 °C 1016.5 hPa OSO 2.9 km/h 5.6 km/h 65.7% 0.0 mm
05:39 8.8 °C 2.8 °C 1016.5 hPa OSO 2.7 km/h 7.6 km/h 66% 0.0 mm
05:44 8.8 °C 2.8 °C 1016.5 hPa SSO 2.3 km/h 7.4 km/h 66% 0.0 mm
05:49 8.9 °C 2.9 °C 1016.5 hPa SSO 3 km/h 10 km/h 66% 0.0 mm
05:54 9 °C 2.9 °C 1016.5 hPa Sur 4.7 km/h 13.7 km/h 65.4% 0.0 mm
05:59 9.2 °C 2.8 °C 1016.4 hPa SSO 5.8 km/h 11.1 km/h 64.6% 0.0 mm
06:04 9.3 °C 2.8 °C 1016.4 hPa SSO 8.4 km/h 11.1 km/h 64% 0.0 mm
06:09 9.4 °C 2.7 °C 1016.5 hPa SO 8 km/h 9.3 km/h 63.2% 0.0 mm
06:14 9.4 °C 2.7 °C 1016.5 hPa SSO 6.9 km/h 9.3 km/h 63% 0.0 mm
06:19 9.4 °C 2.7 °C 1016.5 hPa SO 6.7 km/h 7.4 km/h 63% 0.0 mm
06:24 9.4 °C 2.7 °C 1016.7 hPa OSO 5.8 km/h 7.4 km/h 63% 0.0 mm
06:29 9.4 °C 2.5 °C 1016.7 hPa OSO 5 km/h 13 km/h 62.1% 0.0 mm
06:34 9.5 °C 2.6 °C 1016.7 hPa SSO 3.2 km/h 13 km/h 62% 0.0 mm
06:39 9.7 °C 2.6 °C 1016.7 hPa SSO 4 km/h 9.3 km/h 61.3% 0.0 mm
06:44 9.8 °C 2.6 °C 1016.6 hPa Sur 5.8 km/h 11.1 km/h 61% 0.0 mm
06:49 9.8 °C 2.6 °C 1016.6 hPa SSO 6.1 km/h 11.1 km/h 61% 0.0 mm
06:54 9.7 °C 2.6 °C 1016.6 hPa Sur 6.9 km/h 9.5 km/h 61% 0.0 mm
06:59 9.7 °C 2.5 °C 1016.6 hPa Sur 6.7 km/h 11.1 km/h 61.2% 0.0 mm
07:04 9.5 °C 2.6 °C 1016.6 hPa SSO 6.4 km/h 13 km/h 62% 0.0 mm
07:09 9.6 °C 2.5 °C 1016.6 hPa Sur 7.2 km/h 13 km/h 61.3% 0.0 mm
07:14 9.6 °C 2.5 °C 1016.6 hPa Sur 8.4 km/h 11.1 km/h 61% 0.0 mm
07:19 9.6 °C 2.7 °C 1016.6 hPa SSE 7.6 km/h 10 km/h 62% 0.0 mm
07:24 9.6 °C 2.6 °C 1016.7 hPa Sur 5.8 km/h 9.3 km/h 62% 0.0 mm
07:29 9.5 °C 2.6 °C 1016.7 hPa Sur 5.6 km/h 8.4 km/h 62% 0.0 mm
07:34 9.5 °C 2.5 °C 1016.7 hPa SSO 5 km/h 10 km/h 62% 0.0 mm
07:39 9.5 °C 2.5 °C 1016.8 hPa SO 5.5 km/h 9.5 km/h 62% 0.0 mm
07:44 9.6 °C 2.6 °C 1016.8 hPa SO 6.4 km/h 7.4 km/h 62% 0.0 mm
07:49 9.6 °C 2.6 °C 1016.8 hPa OSO 5.5 km/h 7.4 km/h 62% 0.0 mm
07:54 9.3 °C 2.5 °C 1017.0 hPa NNO 3.2 km/h 7.4 km/h 62.3% 0.0 mm
07:59 9.1 °C 2.5 °C 1017.0 hPa NO 3.4 km/h 5.6 km/h 63.5% 0.0 mm
08:04 8.9 °C 2.5 °C 1017.0 hPa NO 3.9 km/h 5.6 km/h 64.1% 0.0 mm
08:09 8.8 °C 2.6 °C 1017.1 hPa NO 3.6 km/h 5.8 km/h 65% 0.0 mm
08:14 8.8 °C 2.6 °C 1017.1 hPa ONO 2.9 km/h 5.6 km/h 65% 0.0 mm
08:19 8.8 °C 2.7 °C 1017.1 hPa Oeste 3 km/h 7.4 km/h 65.5% 0.0 mm
08:24 8.8 °C 2.6 °C 1017.1 hPa Oeste 3.2 km/h 7.6 km/h 65% 0.0 mm
08:29 9 °C 2.7 °C 1017.1 hPa Oeste 3.7 km/h 7.4 km/h 64.9% 0.0 mm
08:34 9.2 °C 2.7 °C 1017.1 hPa Oeste 4.7 km/h 7.6 km/h 64% 0.0 mm
08:39 9.3 °C 2.8 °C 1017.3 hPa SSO 4.7 km/h 7.4 km/h 64% 0.0 mm
08:44 9.7 °C 3.2 °C 1017.3 hPa SSO 4.7 km/h 4.7 km/h 64% 0.0 mm
08:49 10.2 °C 3.4 °C 1017.3 hPa SSO 3.9 km/h 7.4 km/h 62.7% 0.0 mm
08:54 10.5 °C 3.3 °C 1017.5 hPa SSO 2.3 km/h 4.7 km/h 61% 0.0 mm
08:59 10.7 °C 3.5 °C 1017.5 hPa Sur 2.5 km/h 5.8 km/h 60.9% 0.0 mm
09:04 11 °C 3.6 °C 1017.5 hPa Sur 2.9 km/h 5.6 km/h 60.3% 0.0 mm
09:09 11.2 °C 3.6 °C 1017.5 hPa Sur 2.9 km/h 4.7 km/h 59.3% 0.0 mm
09:14 11.4 °C 3.8 °C 1017.5 hPa OSO 2.9 km/h 5.8 km/h 59.4% 0.0 mm
09:19 11.5 °C 3.9 °C 1017.5 hPa NNE 2.9 km/h 4.7 km/h 59.7% 0.0 mm
09:24 11.7 °C 3.6 °C 1017.7 hPa ENE 2.9 km/h 10 km/h 57.7% 0.0 mm
09:29 11.6 °C 3.2 °C 1017.7 hPa SSO 3.4 km/h 10 km/h 56.3% 0.0 mm
09:34 11.4 °C 3 °C 1017.7 hPa SO 4.7 km/h 11.1 km/h 56% 0.0 mm
09:39 11.3 °C 2.8 °C 1017.8 hPa SO 5.3 km/h 10 km/h 56% 0.0 mm
09:44 11.3 °C 2.8 °C 1017.8 hPa SO 6.9 km/h 11.1 km/h 56% 0.0 mm
09:49 11.3 °C 2.9 °C 1017.8 hPa SO 6.9 km/h 11.1 km/h 56% 0.0 mm
09:54 11.4 °C 2.9 °C 1017.9 hPa OSO 6.9 km/h 13.7 km/h 56% 0.0 mm
09:59 11.5 °C 3 °C 1017.9 hPa OSO 6.9 km/h 11.9 km/h 56% 0.0 mm
10:04 11.7 °C 3.1 °C 1017.9 hPa OSO 6.9 km/h 13 km/h 55.7% 0.0 mm
10:09 11.8 °C 3 °C 1017.9 hPa SO 7.4 km/h 13 km/h 55% 0.0 mm
10:14 11.9 °C 2.9 °C 1017.9 hPa OSO 8.4 km/h 11.1 km/h 54% 0.0 mm
10:19 12.1 °C 2.8 °C 1017.9 hPa OSO 8 km/h 13 km/h 53.2% 0.0 mm
10:24 12.3 °C 3 °C 1017.9 hPa SO 6.9 km/h 11.1 km/h 53% 0.0 mm
10:29 12.6 °C 3.1 °C 1017.9 hPa SO 6.8 km/h 14.8 km/h 52.5% 0.0 mm
10:34 12.8 °C 3.1 °C 1017.9 hPa SSO 6.4 km/h 9.5 km/h 51.8% 0.0 mm
10:39 13 °C 3.1 °C 1017.9 hPa SSO 6 km/h 7.4 km/h 51% 0.0 mm
10:44 13.5 °C 3.2 °C 1017.9 hPa Sur 4.7 km/h 11.1 km/h 49.9% 0.0 mm
10:49 13.7 °C 3.3 °C 1017.9 hPa Sur 4.8 km/h 7.6 km/h 49.6% 0.0 mm
10:54 13.8 °C 3.3 °C 1017.9 hPa SSO 5 km/h 9.5 km/h 49.3% 0.0 mm
10:59 13.8 °C 3.2 °C 1017.9 hPa SSO 5.3 km/h 10 km/h 48.8% 0.0 mm
11:04 14 °C 3.3 °C 1017.9 hPa Sur 5.8 km/h 11.1 km/h 48.5% 0.0 mm
11:09 14.2 °C 3.3 °C 1017.9 hPa SSE 6 km/h 13 km/h 48% 0.0 mm
11:14 14.3 °C 3.5 °C 1017.8 hPa SSO 6.4 km/h 11.1 km/h 48% 0.0 mm
11:19 14.4 °C 3.4 °C 1017.8 hPa Sur 6.4 km/h 11.1 km/h 47.8% 0.0 mm
11:24 14.6 °C 3.4 °C 1017.8 hPa Sur 6.4 km/h 13 km/h 47% 0.0 mm
11:29 14.8 °C 3.5 °C 1017.6 hPa SSO 6.4 km/h 11.1 km/h 46.7% 0.0 mm
11:34 14.8 °C 3.4 °C 1017.6 hPa SO 6.4 km/h 13.7 km/h 46.3% 0.0 mm
11:39 14.9 °C 3.4 °C 1017.6 hPa SSO 6.5 km/h 13 km/h 46.2% 0.0 mm
11:44 15.1 °C 3.5 °C 1017.4 hPa SO 6.9 km/h 13 km/h 45.8% 0.0 mm
11:49 15.2 °C 3.5 °C 1017.4 hPa SO 7.4 km/h 11.9 km/h 45.6% 0.0 mm
11:54 15.2 °C 3.5 °C 1017.4 hPa OSO 8.4 km/h 14.8 km/h 45.4% 0.0 mm
11:59 15.4 °C 3.3 °C 1017.4 hPa Oeste 7.7 km/h 11.9 km/h 44.4% 0.0 mm
12:04 15.5 °C 3.4 °C 1017.4 hPa OSO 6.4 km/h 11.9 km/h 44.4% 0.0 mm
12:09 15.7 °C 3.4 °C 1017.4 hPa SO 6.4 km/h 13 km/h 43.9% 0.0 mm
12:14 15.7 °C 3.3 °C 1017.0 hPa SSO 6.4 km/h 14.8 km/h 43.2% 0.0 mm
12:19 15.9 °C 3.2 °C 1017.0 hPa OSO 6.8 km/h 14.8 km/h 42.6% 0.0 mm
12:24 16.2 °C 3.2 °C 1017.0 hPa SO 7.6 km/h 14.8 km/h 42% 0.0 mm
12:29 16.3 °C 3.3 °C 1016.6 hPa OSO 7.9 km/h 17.2 km/h 42% 0.0 mm
12:34 16.4 °C 3.2 °C 1016.6 hPa OSO 8.7 km/h 13.7 km/h 41.2% 0.0 mm
12:39 16.5 °C 3.3 °C 1016.6 hPa SO 8.1 km/h 13.7 km/h 41.2% 0.0 mm
12:44 16.7 °C 3.3 °C 1016.5 hPa OSO 6.9 km/h 14.8 km/h 40.9% 0.0 mm
12:49 16.7 °C 3.3 °C 1016.5 hPa SO 7.1 km/h 14.8 km/h 40.5% 0.0 mm
12:54 16.8 °C 3.1 °C 1016.5 hPa SO 7.6 km/h 13 km/h 40% 0.0 mm
12:59 17 °C 3.3 °C 1016.3 hPa OSO 7 km/h 9.3 km/h 40% 0.0 mm
13:04 17.3 °C 3.4 °C 1016.3 hPa SO 5.8 km/h 14.8 km/h 39.5% 0.0 mm
13:09 17.3 °C 3.4 °C 1016.3 hPa SO 5.8 km/h 11.1 km/h 39.5% 0.0 mm
13:14 17.5 °C 3.3 °C 1016.0 hPa NE 5.8 km/h 14.8 km/h 38.7% 0.0 mm
13:19 17.7 °C 3.1 °C 1016.0 hPa ONO 5.6 km/h 11.1 km/h 38% 0.0 mm
13:24 17.7 °C 3 °C 1016.0 hPa Oeste 5 km/h 10 km/h 37.4% 0.0 mm
13:29 17.7 °C 3 °C 1015.9 hPa SSE 5.5 km/h 9.3 km/h 37.4% 0.0 mm
13:34 17.8 °C 3 °C 1015.9 hPa SE 6.4 km/h 9.5 km/h 37.2% 0.0 mm
13:39 18.1 °C 2.9 °C 1015.9 hPa Sur 6 km/h 8.4 km/h 36.6% 0.0 mm
13:44 18.2 °C 3 °C 1015.6 hPa SSO 5 km/h 9.5 km/h 36.5% 0.0 mm
13:49 18.2 °C 3.1 °C 1015.6 hPa SSO 5 km/h 10 km/h 36.5% 0.0 mm
13:54 18.2 °C 2.9 °C 1015.6 hPa Sur 5 km/h 11.9 km/h 36% 0.0 mm
13:59 18.2 °C 2.9 °C 1015.5 hPa SSO 5.5 km/h 9.3 km/h 36% 0.0 mm
14:04 18.3 °C 2.9 °C 1015.5 hPa NNO 6.4 km/h 7.4 km/h 35.9% 0.0 mm
14:09 18.5 °C 3.1 °C 1015.5 hPa NO 5.4 km/h 5.6 km/h 36% 0.0 mm
14:14 18.8 °C 3.3 °C 1015.3 hPa OSO 3.2 km/h 7.4 km/h 35.8% 0.0 mm
14:19 18.9 °C 3 °C 1015.3 hPa Sur 3.4 km/h 8.4 km/h 34.8% 0.0 mm
14:24 18.9 °C 3.1 °C 1015.3 hPa SSO 3.9 km/h 7.6 km/h 35% 0.0 mm
14:29 19 °C 3.2 °C 1015.2 hPa Oeste 3.7 km/h 5.8 km/h 34.9% 0.0 mm
14:34 19.2 °C 3 °C 1015.2 hPa SSE 3.2 km/h 5.6 km/h 34% 0.0 mm
14:39 19.4 °C 3.1 °C 1015.2 hPa Este 3.1 km/h 5.8 km/h 33.8% 0.0 mm
14:44 19.5 °C 3 °C 1015.1 hPa NE 2.9 km/h 8.4 km/h 33.6% 0.0 mm
14:49 19.3 °C 3.3 °C 1015.1 hPa NNE 3.5 km/h 10 km/h 34.5% 0.0 mm
14:54 19.3 °C 3.2 °C 1015.1 hPa SE 5 km/h 8.4 km/h 34.4% 0.0 mm
14:59 19.3 °C 3 °C 1014.9 hPa ESE 4.9 km/h 7.4 km/h 33.8% 0.0 mm
15:04 19.4 °C 3.1 °C 1014.9 hPa NE 4.7 km/h 9.5 km/h 34% 0.0 mm
15:09 19.3 °C 3.1 °C 1014.9 hPa NE 4.7 km/h 9.3 km/h 34% 0.0 mm
15:14 19.3 °C 3 °C 1014.8 hPa NE 4.7 km/h 9.3 km/h 34% 0.0 mm
15:19 19.2 °C 2.8 °C 1014.8 hPa ENE 5 km/h 10 km/h 33.7% 0.0 mm
15:24 19.2 °C 2.9 °C 1014.8 hPa NNE 5.8 km/h 8.4 km/h 33.9% 0.0 mm
15:29 19.3 °C 3 °C 1014.7 hPa NE 5.4 km/h 9.5 km/h 34% 0.0 mm
15:34 19.3 °C 3 °C 1014.7 hPa NNE 4.7 km/h 11.1 km/h 34% 0.0 mm
15:39 19.3 °C 2.9 °C 1014.8 hPa NNO 4.8 km/h 9.3 km/h 33.7% 0.0 mm
15:44 19.4 °C 3 °C 1014.8 hPa NNO 5 km/h 9.3 km/h 33.7% 0.0 mm
15:49 19.4 °C 3 °C 1014.8 hPa NNE 5 km/h 8.4 km/h 33.6% 0.0 mm
15:54 19.4 °C 2.8 °C 1014.8 hPa NE 5 km/h 6.4 km/h 33.3% 0.0 mm
15:59 19.6 °C 2.9 °C 1014.7 hPa ENE 4.3 km/h 7.6 km/h 33% 0.0 mm
16:04 19.7 °C 2.9 °C 1014.7 hPa ENE 2.9 km/h 7.4 km/h 33% 0.0 mm
16:09 19.6 °C 2.8 °C 1014.8 hPa ENE 3.6 km/h 10 km/h 32.9% 0.0 mm
16:14 19.4 °C 2.7 °C 1014.8 hPa ENE 5 km/h 10 km/h 33% 0.0 mm
16:19 19.4 °C 3 °C 1014.8 hPa NNE 5.2 km/h 13 km/h 33.8% 0.0 mm
16:24 19.3 °C 2.8 °C 1014.8 hPa NE 5.8 km/h 10 km/h 33.5% 0.0 mm
16:29 19.3 °C 2.9 °C 1014.7 hPa ENE 6 km/h 10.3 km/h 33.8% 0.0 mm
16:34 19.2 °C 4 °C 1014.7 hPa ESE 6.4 km/h 16.1 km/h 36.5% 0.0 mm
16:39 19 °C 4.8 °C 1014.8 hPa ESE 7.5 km/h 17.2 km/h 39.3% 0.0 mm
16:44 18.8 °C 5.1 °C 1014.8 hPa ESE 10 km/h 16.4 km/h 40.6% 0.0 mm
16:49 18.7 °C 5.3 °C 1014.8 hPa ESE 9.8 km/h 16.7 km/h 41.4% 0.0 mm
16:54 18.6 °C 5.5 °C 1014.8 hPa ESE 9.5 km/h 16.7 km/h 42.3% 0.0 mm
16:59 18.4 °C 5.6 °C 1014.8 hPa ESE 9.7 km/h 15.6 km/h 43% 0.0 mm
17:04 18.2 °C 5.7 °C 1014.8 hPa ESE 10 km/h 15.6 km/h 44% 0.0 mm
17:09 18.1 °C 5.8 °C 1014.9 hPa Este 9.5 km/h 13 km/h 44.4% 0.0 mm
17:14 18 °C 6 °C 1014.9 hPa Este 8.4 km/h 14.8 km/h 45.3% 0.0 mm
17:19 17.9 °C 6.2 °C 1014.9 hPa Este 8.2 km/h 11.1 km/h 46.3% 0.0 mm
17:24 17.8 °C 6.3 °C 1015.1 hPa Este 7.6 km/h 13 km/h 47% 0.0 mm
17:29 17.7 °C 6.5 °C 1015.1 hPa ESE 7.8 km/h 13.7 km/h 47.9% 0.0 mm
17:34 17.5 °C 6.5 °C 1015.1 hPa ESE 8.4 km/h 11.9 km/h 48.7% 0.0 mm
17:39 17.3 °C 6.6 °C 1015.3 hPa Este 7.9 km/h 11.1 km/h 49.4% 0.0 mm
17:44 17.2 °C 6.7 °C 1015.3 hPa Este 6.9 km/h 8.4 km/h 50.2% 0.0 mm
17:49 17 °C 6.9 °C 1015.3 hPa Este 6.6 km/h 16.7 km/h 51.3% 0.0 mm
17:54 16.8 °C 7 °C 1015.6 hPa Este 5.8 km/h 13 km/h 52.5% 0.0 mm
17:59 16.6 °C 7.1 °C 1015.6 hPa ENE 6.2 km/h 11.1 km/h 53.4% 0.0 mm
18:04 16.4 °C 7.1 °C 1015.6 hPa NE 6.9 km/h 9.3 km/h 54% 0.0 mm
18:09 16.3 °C 7.1 °C 1015.8 hPa NE 6.6 km/h 10 km/h 54.6% 0.0 mm
18:14 16.2 °C 7.2 °C 1015.8 hPa NE 5.8 km/h 11.1 km/h 55% 0.0 mm
18:19 16.1 °C 7.1 °C 1015.8 hPa ENE 6 km/h 7.4 km/h 55.2% 0.0 mm
18:24 16.1 °C 7.3 °C 1016.0 hPa ENE 6.4 km/h 8.4 km/h 56% 0.0 mm
18:29 15.9 °C 7.3 °C 1016.0 hPa Este 5.7 km/h 7.4 km/h 56.6% 0.0 mm
18:34 15.8 °C 7.4 °C 1016.0 hPa ENE 3.9 km/h 14.8 km/h 57.4% 0.0 mm
18:39 15.7 °C 7.4 °C 1016.2 hPa NE 4.5 km/h 11.1 km/h 58% 0.0 mm
18:44 15.6 °C 7.5 °C 1016.2 hPa NE 5.8 km/h 8.4 km/h 58.4% 0.0 mm
18:49 15.6 °C 7.6 °C 1016.2 hPa NNE 5.5 km/h 9.3 km/h 59.1% 0.0 mm
18:54 15.5 °C 7.8 °C 1016.2 hPa NE 5 km/h 11.9 km/h 60.1% 0.0 mm
18:59 15.5 °C 8.1 °C 1016.2 hPa NE 5.2 km/h 11.1 km/h 61.3% 0.0 mm
19:04 15.4 °C 8.2 °C 1016.2 hPa NE 5.8 km/h 11.1 km/h 62.1% 0.0 mm
19:09 15.4 °C 8.2 °C 1016.4 hPa ENE 6 km/h 10 km/h 62.4% 0.0 mm
19:14 15.4 °C 8.5 °C 1016.4 hPa NNE 6.4 km/h 11.1 km/h 63.6% 0.0 mm
19:19 15.1 °C 8.4 °C 1016.4 hPa North 6.4 km/h 11.1 km/h 64.1% 0.0 mm
19:24 14.7 °C 8.3 °C 1016.6 hPa North 6.4 km/h 9.5 km/h 65.4% 0.0 mm
19:29 14.4 °C 8.3 °C 1016.6 hPa North 6.4 km/h 11.1 km/h 66.8% 0.0 mm
19:34 14.2 °C 8.4 °C 1016.6 hPa NNE 6.4 km/h 9.5 km/h 68.5% 0.0 mm
19:39 14 °C 8.5 °C 1016.7 hPa NNE 6.3 km/h 11.1 km/h 69.6% 0.0 mm
19:44 13.9 °C 8.6 °C 1016.7 hPa NNE 5.8 km/h 9.5 km/h 70.3% 0.0 mm
19:49 13.9 °C 8.7 °C 1016.7 hPa NNE 5.5 km/h 7.6 km/h 71% 0.0 mm
19:54 13.9 °C 8.7 °C 1016.9 hPa NNE 5 km/h 8.4 km/h 71% 0.0 mm
19:59 13.9 °C 8.8 °C 1016.9 hPa NNE 4.9 km/h 9.3 km/h 71.6% 0.0 mm
20:04 13.8 °C 8.8 °C 1016.9 hPa NNE 4.7 km/h 9.5 km/h 72% 0.0 mm
20:09 13.8 °C 8.9 °C 1016.9 hPa NNE 5 km/h 9.3 km/h 72.6% 0.0 mm
20:14 13.7 °C 8.9 °C 1016.9 hPa NNE 5.8 km/h 7.4 km/h 73% 0.0 mm
20:19 13.7 °C 9.1 °C 1016.9 hPa NNE 5.4 km/h 7.6 km/h 73.7% 0.0 mm
20:24 13.7 °C 9.2 °C 1017.0 hPa NE 4.7 km/h 7.4 km/h 74.2% 0.0 mm
20:29 13.7 °C 9.3 °C 1017.0 hPa NNE 4.7 km/h 8.4 km/h 75% 0.0 mm
20:34 13.7 °C 9.3 °C 1017.0 hPa NE 4.7 km/h 10 km/h 75% 0.0 mm
20:39 13.7 °C 9.4 °C 1017.0 hPa NE 5.1 km/h 9.3 km/h 75.4% 0.0 mm
20:44 13.6 °C 9.4 °C 1017.0 hPa NE 5.8 km/h 7.6 km/h 76% 0.0 mm
20:49 13.5 °C 9.4 °C 1017.0 hPa NE 5.4 km/h 8.4 km/h 76% 0.0 mm
20:54 13.5 °C 9.6 °C 1017.2 hPa ENE 4.7 km/h 8.4 km/h 76.9% 0.0 mm
20:59 13.5 °C 9.6 °C 1017.2 hPa ENE 4.4 km/h 7.4 km/h 77% 0.0 mm
21:04 13.5 °C 9.6 °C 1017.2 hPa ENE 3.9 km/h 7.4 km/h 77% 0.0 mm
21:09 13.5 °C 9.6 °C 1017.2 hPa NE 3.7 km/h 5.8 km/h 77% 0.0 mm
21:14 13.4 °C 9.5 °C 1017.2 hPa North 3.2 km/h 7.4 km/h 77% 0.0 mm
21:19 13.4 °C 9.4 °C 1017.2 hPa NNO 3.7 km/h 7.4 km/h 77.1% 0.0 mm
21:24 13.3 °C 9.5 °C 1017.4 hPa NNO 4.7 km/h 7.4 km/h 78% 0.0 mm
21:29 13.2 °C 9.5 °C 1017.4 hPa NNO 4.4 km/h 5.8 km/h 78.1% 0.0 mm
21:34 13.2 °C 9.6 °C 1017.4 hPa NO 3.9 km/h 5.8 km/h 79% 0.0 mm
21:39 13.2 °C 9.6 °C 1017.4 hPa NO 3.7 km/h 5.6 km/h 79% 0.0 mm
21:44 13.2 °C 9.6 °C 1017.4 hPa NO 3.2 km/h 5.8 km/h 79% 0.0 mm
21:49 13.2 °C 9.6 °C 1017.4 hPa North 3.4 km/h 7.4 km/h 79% 0.0 mm
21:54 13.2 °C 9.6 °C 1017.5 hPa NE 3.9 km/h 7.4 km/h 79% 0.0 mm
21:59 13.2 °C 9.6 °C 1017.5 hPa NE 4.2 km/h 7.4 km/h 79% 0.0 mm
22:04 13.2 °C 9.6 °C 1017.5 hPa ENE 5 km/h 7.4 km/h 79% 0.0 mm
22:09 13.2 °C 9.6 °C 1017.5 hPa NE 4.6 km/h 7.4 km/h 79% 0.0 mm
22:14 13.2 °C 9.6 °C 1017.5 hPa NE 3.9 km/h 7.4 km/h 79% 0.0 mm
22:19 13.2 °C 9.6 °C 1017.5 hPa ENE 3.9 km/h 6.9 km/h 78.8% 0.0 mm
22:24 13.1 °C 9.2 °C 1017.6 hPa SE 3.9 km/h 7.4 km/h 77.4% 0.0 mm
22:29 12.9 °C 8.8 °C 1017.6 hPa SE 3.9 km/h 5.8 km/h 76.4% 0.0 mm
22:34 12.8 °C 8.7 °C 1017.6 hPa SE 3.9 km/h 5.6 km/h 76% 0.0 mm
22:39 12.7 °C 8.4 °C 1017.7 hPa SE 3.3 km/h 3.9 km/h 75.2% 0.0 mm
22:44 12.7 °C 8.3 °C 1017.7 hPa SE 3.2 km/h 3.7 km/h 75% 0.0 mm
22:49 12.6 °C 8.3 °C 1017.7 hPa SE 2.2 km/h   75.1% 0.0 mm
22:54 12.6 °C 8.5 °C 1017.7 hPa Calm   3.9 km/h 76% 0.0 mm
22:59 12.6 °C 8.5 °C 1017.7 hPa Calm   3.7 km/h 76% 0.0 mm
23:04 12.7 °C 8.7 °C 1017.7 hPa Calm   5.8 km/h 76.7% 0.0 mm
23:09 12.7 °C 8.6 °C 1017.7 hPa SE 0.9 km/h 7.4 km/h 76% 0.0 mm
23:14 12.7 °C 8.6 °C 1017.7 hPa Sur 2.9 km/h 7.4 km/h 76% 0.0 mm
23:19 12.7 °C 8.6 °C 1017.7 hPa SSE 3.4 km/h 7.4 km/h 76% 0.0 mm
23:24 12.7 °C 8.5 °C 1017.7 hPa SSE 4.7 km/h 7.4 km/h 76% 0.0 mm
23:29 12.6 °C 8.5 °C 1017.7 hPa SE 4.7 km/h 7.4 km/h 76% 0.0 mm
23:34 12.6 °C 8.5 °C 1017.7 hPa SE 4.7 km/h 7.4 km/h 76% 0.0 mm
23:39 12.4 °C 8.2 °C 1017.7 hPa SE 4.7 km/h 7.6 km/h 75.4% 0.0 mm
23:44 12.2 °C 7.9 °C 1017.7 hPa SE 4.7 km/h 7.6 km/h 75% 0.0 mm
23:49 12 °C 7.7 °C 1017.7 hPa SSE 4.8 km/h 9.3 km/h 75% 0.0 mm
23:54 11.8 °C 7.5 °C 1017.8 hPa SSE 5 km/h 8.4 km/h 75% 0.0 mm
23:59 11.7 °C 7.4 °C 1017.8 hPa Sur 5.3 km/h 12.2 km/h 75% 0.0 mm
Murcia-Puente Tocinos, Espa?a
Compliments of Weather Underground - 3 mb

La estación de MeteoMurcia.com, publica sus datos en los siguientes proyectos:

Weather Underground PWS IMURCIAP2 Meteoclimatic www.awekas.at

W3Counter
Web Analytics